Farnsfield, United Kingdom
Current Conditions -  °F | °C
As of 4:50 AM on Tuesday 21 Oct 2014 (Local Time) from EGXW Reporting Station
Light Rain Light Rain  
Wind Chill: 54°   Ceiling: 7000
Heat Index: 54°   Visibility: 6mi
Dew Point: 50°   Wind: 25mph
Humidity: 88%   Direction: 200°SSW
Pressure: 29.44"   Gusts: NA
Location:  53.1°N, 1.03°W
Report Text: EGXW 210350Z 20022KT 9999 -RA SCT015 BKN070 12/10 Q0997 WHT
Loading
Personal Weather Stations






























Interactive Weather Map New forecast layout! Learn more

10-Day Weather Forecast

Advertisements
Track Severe Weather on mobile